sensor_id;sensor_type;location;lat;lon;timestamp;P1;durP1;ratioP1;P2;durP2;ratioP2
4692;SDS011;11710;48.024;16.296;2023-05-10T04:21:46;10.83;;;6.30;;
4692;SDS011;11710;48.024;16.296;2023-05-10T04:24:14;8.70;;;5.90;;
4692;SDS011;11710;48.024;16.296;2023-05-10T04:26:41;7.60;;;6.13;;
4692;SDS011;11710;48.024;16.296;2023-05-10T04:29:08;8.17;;;6.30;;
4692;SDS011;11710;48.024;16.296;2023-05-10T04:31:35;8.27;;;6.40;;
4692;SDS011;11710;48.024;16.296;2023-05-10T04:34:02;8.10;;;6.80;;
4692;SDS011;11710;48.024;16.296;2023-05-10T04:36:30;7.70;;;6.43;;
4692;SDS011;11710;48.024;16.296;2023-05-10T04:38:59;10.33;;;8.50;;
4692;SDS011;11710;48.024;16.296;2023-05-10T04:41:26;7.27;;;6.60;;
4692;SDS011;11710;48.024;16.296;2023-05-10T04:43:53;7.33;;;6.63;;
4692;SDS011;11710;48.024;16.296;2023-05-10T04:46:20;7.10;;;6.10;;
4692;SDS011;11710;48.024;16.296;2023-05-10T04:48:47;8.93;;;5.93;;
4692;SDS011;11710;48.024;16.296;2023-05-10T04:51:15;7.10;;;6.40;;
4692;SDS011;11710;48.024;16.296;2023-05-10T04:53:42;9.60;;;8.60;;
4692;SDS011;11710;48.024;16.296;2023-05-10T04:56:10;13.33;;;10.10;;
4692;SDS011;11710;48.024;16.296;2023-05-10T04:58:38;16.97;;;12.47;;
4692;SDS011;11710;48.024;16.296;2023-05-10T05:01:05;17.93;;;11.33;;
4692;SDS011;11710;48.024;16.296;2023-05-10T05:03:33;10.33;;;8.60;;
4692;SDS011;11710;48.024;16.296;2023-05-10T05:06:00;14.13;;;9.77;;
4692;SDS011;11710;48.024;16.296;2023-05-10T05:08:28;9.97;;;9.00;;
4692;SDS011;11710;48.024;16.296;2023-05-10T05:10:55;8.67;;;6.97;;
4692;SDS011;11710;48.024;16.296;2023-05-10T05:13:23;7.87;;;7.07;;
4692;SDS011;11710;48.024;16.296;2023-05-10T05:15:51;6.67;;;6.07;;
4692;SDS011;11710;48.024;16.296;2023-05-10T05:18:18;6.27;;;5.73;;
4692;SDS011;11710;48.024;16.296;2023-05-10T05:20:45;7.77;;;6.10;;
4692;SDS011;11710;48.024;16.296;2023-05-10T05:23:13;7.50;;;6.80;;
4692;SDS011;11710;48.024;16.296;2023-05-10T05:25:40;7.13;;;6.53;;
4692;SDS011;11710;48.024;16.296;2023-05-10T05:28:07;10.33;;;6.77;;
4692;SDS011;11710;48.024;16.296;2023-05-10T05:30:36;10.63;;;7.03;;
4692;SDS011;11710;48.024;16.296;2023-05-10T05:33:03;10.63;;;7.03;;
4692;SDS011;11710;48.024;16.296;2023-05-10T05:35:30;10.60;;;6.93;;
4692;SDS011;11710;48.024;16.296;2023-05-10T05:37:57;9.13;;;7.47;;
4692;SDS011;11710;48.024;16.296;2023-05-10T05:40:25;8.80;;;7.47;;
4692;SDS011;11710;48.024;16.296;2023-05-10T05:42:52;15.17;;;7.87;;
4692;SDS011;11710;48.024;16.296;2023-05-10T05:45:19;10.03;;;6.60;;
4692;SDS011;11710;48.024;16.296;2023-05-10T05:47:48;9.30;;;6.60;;
4692;SDS011;11710;48.024;16.296;2023-05-10T05:50:15;10.10;;;7.20;;
4692;SDS011;11710;48.024;16.296;2023-05-10T05:52:42;7.80;;;7.00;;
4692;SDS011;11710;48.024;16.296;2023-05-10T05:55:10;9.30;;;6.30;;
4692;SDS011;11710;48.024;16.296;2023-05-10T05:57:38;7.60;;;6.43;;
4692;SDS011;11710;48.024;16.296;2023-05-10T06:00:06;10.13;;;6.70;;
4692;SDS011;11710;48.024;16.296;2023-05-10T06:02:34;9.23;;;6.60;;
4692;SDS011;11710;48.024;16.296;2023-05-10T06:05:03;7.63;;;6.50;;
4692;SDS011;11710;48.024;16.296;2023-05-10T06:07:31;11.13;;;7.17;;
4692;SDS011;11710;48.024;16.296;2023-05-10T06:09:58;12.27;;;7.03;;
4692;SDS011;11710;48.024;16.296;2023-05-10T06:12:25;7.60;;;6.67;;
4692;SDS011;11710;48.024;16.296;2023-05-10T06:14:52;8.10;;;6.90;;
4692;SDS011;11710;48.024;16.296;2023-05-10T06:17:20;7.83;;;6.17;;
4692;SDS011;11710;48.024;16.296;2023-05-10T06:19:47;9.60;;;7.07;;
4692;SDS011;11710;48.024;16.296;2023-05-10T06:22:15;11.67;;;6.57;;
4692;SDS011;11710;48.024;16.296;2023-05-10T06:24:43;8.97;;;6.30;;
4692;SDS011;11710;48.024;16.296;2023-05-10T06:27:10;9.03;;;6.70;;
4692;SDS011;11710;48.024;16.296;2023-05-10T06:29:37;7.40;;;6.13;;
4692;SDS011;11710;48.024;16.296;2023-05-10T06:32:04;6.53;;;5.80;;
4692;SDS011;11710;48.024;16.296;2023-05-10T06:34:31;8.93;;;6.60;;
4692;SDS011;11710;48.024;16.296;2023-05-10T06:36:59;8.30;;;6.10;;
4692;SDS011;11710;48.024;16.296;2023-05-10T06:39:27;9.70;;;7.00;;
4692;SDS011;11710;48.024;16.296;2023-05-10T06:41:54;7.30;;;6.23;;
4692;SDS011;11710;48.024;16.296;2023-05-10T06:44:21;8.53;;;6.53;;
4692;SDS011;11710;48.024;16.296;2023-05-10T06:46:49;7.90;;;7.10;;
4692;SDS011;11710;48.024;16.296;2023-05-10T06:49:17;7.60;;;6.63;;
4692;SDS011;11710;48.024;16.296;2023-05-10T06:51:44;9.53;;;6.37;;
4692;SDS011;11710;48.024;16.296;2023-05-10T06:54:12;8.80;;;6.90;;
4692;SDS011;11710;48.024;16.296;2023-05-10T06:56:40;8.07;;;7.23;;
4692;SDS011;11710;48.024;16.296;2023-05-10T06:59:08;11.07;;;6.90;;
4692;SDS011;11710;48.024;16.296;2023-05-10T07:01:36;9.43;;;6.43;;
4692;SDS011;11710;48.024;16.296;2023-05-10T07:04:03;8.97;;;7.07;;
4692;SDS011;11710;48.024;16.296;2023-05-10T07:06:32;11.73;;;6.37;;
4692;SDS011;11710;48.024;16.296;2023-05-10T07:08:59;6.50;;;5.80;;
4692;SDS011;11710;48.024;16.296;2023-05-10T07:11:27;7.50;;;6.20;;
4692;SDS011;11710;48.024;16.296;2023-05-10T07:13:56;8.10;;;6.57;;
4692;SDS011;11710;48.024;16.296;2023-05-10T07:16:24;8.30;;;5.47;;
4692;SDS011;11710;48.024;16.296;2023-05-10T07:18:52;6.73;;;5.80;;
4692;SDS011;11710;48.024;16.296;2023-05-10T07:21:19;8.33;;;6.17;;
4692;SDS011;11710;48.024;16.296;2023-05-10T07:23:49;8.20;;;6.33;;
4692;SDS011;11710;48.024;16.296;2023-05-10T07:26:16;6.60;;;5.77;;
4692;SDS011;11710;48.024;16.296;2023-05-10T07:28:44;5.37;;;4.83;;
4692;SDS011;11710;48.024;16.296;2023-05-10T07:31:13;6.33;;;5.30;;
4692;SDS011;11710;48.024;16.296;2023-05-10T07:33:40;5.77;;;4.93;;
4692;SDS011;11710;48.024;16.296;2023-05-10T07:36:08;5.20;;;4.40;;
4692;SDS011;11710;48.024;16.296;2023-05-10T07:38:35;8.23;;;4.23;;
4692;SDS011;11710;48.024;16.296;2023-05-10T07:41:02;7.33;;;5.63;;
4692;SDS011;11710;48.024;16.296;2023-05-10T07:43:29;8.87;;;5.30;;
4692;SDS011;11710;48.024;16.296;2023-05-10T07:45:56;9.30;;;6.13;;
4692;SDS011;11710;48.024;16.296;2023-05-10T07:48:26;8.50;;;5.87;;
4692;SDS011;11710;48.024;16.296;2023-05-10T07:50:53;8.67;;;5.43;;
4692;SDS011;11710;48.024;16.296;2023-05-10T07:53:20;5.93;;;5.33;;
4692;SDS011;11710;48.024;16.296;2023-05-10T07:55:49;8.30;;;5.47;;
4692;SDS011;11710;48.024;16.296;2023-05-10T07:58:17;6.10;;;5.03;;
4692;SDS011;11710;48.024;16.296;2023-05-10T08:00:44;8.13;;;4.97;;
4692;SDS011;11710;48.024;16.296;2023-05-10T08:03:11;6.60;;;5.50;;
4692;SDS011;11710;48.024;16.296;2023-05-10T08:05:40;8.77;;;4.97;;
4692;SDS011;11710;48.024;16.296;2023-05-10T08:08:07;7.00;;;4.67;;
4692;SDS011;11710;48.024;16.296;2023-05-10T08:10:34;6.70;;;5.17;;
4692;SDS011;11710;48.024;16.296;2023-05-10T08:13:01;6.63;;;5.50;;
4692;SDS011;11710;48.024;16.296;2023-05-10T08:15:28;6.73;;;5.27;;
4692;SDS011;11710;48.024;16.296;2023-05-10T08:17:56;11.70;;;5.20;;
4692;SDS011;11710;48.024;16.296;2023-05-10T08:20:23;7.60;;;5.23;;
4692;SDS011;11710;48.024;16.296;2023-05-10T08:22:51;6.40;;;5.03;;
4692;SDS011;11710;48.024;16.296;2023-05-10T08:25:18;6.63;;;5.40;;
4692;SDS011;11710;48.024;16.296;2023-05-10T08:27:46;7.87;;;5.70;;
4692;SDS011;11710;48.024;16.296;2023-05-10T08:30:13;9.10;;;5.43;;
4692;SDS011;11710;48.024;16.296;2023-05-10T08:32:43;8.20;;;6.03;;
4692;SDS011;11710;48.024;16.296;2023-05-10T08:35:13;6.10;;;5.20;;
4692;SDS011;11710;48.024;16.296;2023-05-10T08:37:43;5.87;;;5.27;;
4692;SDS011;11710;48.024;16.296;2023-05-10T08:40:12;8.70;;;5.47;;
4692;SDS011;11710;48.024;16.296;2023-05-10T08:42:42;9.50;;;6.37;;
4692;SDS011;11710;48.024;16.296;2023-05-10T08:45:14;6.70;;;5.63;;
4692;SDS011;11710;48.024;16.296;2023-05-10T08:47:44;7.27;;;5.57;;
4692;SDS011;11710;48.024;16.296;2023-05-10T08:50:12;7.30;;;6.00;;
4692;SDS011;11710;48.024;16.296;2023-05-10T08:52:41;11.50;;;5.60;;
4692;SDS011;11710;48.024;16.296;2023-05-10T08:55:09;8.50;;;6.20;;
4692;SDS011;11710;48.024;16.296;2023-05-10T08:57:37;9.33;;;5.63;;
4692;SDS011;11710;48.024;16.296;2023-05-10T09:00:06;10.57;;;6.47;;
4692;SDS011;11710;48.024;16.296;2023-05-10T09:02:34;7.30;;;6.00;;
4692;SDS011;11710;48.024;16.296;2023-05-10T09:05:03;7.73;;;5.90;;
4692;SDS011;11710;48.024;16.296;2023-05-10T09:07:31;7.00;;;5.63;;
4692;SDS011;11710;48.024;16.296;2023-05-10T09:09:59;12.50;;;5.90;;
4692;SDS011;11710;48.024;16.296;2023-05-10T09:12:26;7.90;;;5.90;;
4692;SDS011;11710;48.024;16.296;2023-05-10T09:14:55;8.07;;;6.20;;
4692;SDS011;11710;48.024;16.296;2023-05-10T09:17:26;9.07;;;5.97;;
4692;SDS011;11710;48.024;16.296;2023-05-10T09:19:57;5.37;;;4.87;;
4692;SDS011;11710;48.024;16.296;2023-05-10T09:22:25;7.43;;;5.87;;
4692;SDS011;11710;48.024;16.296;2023-05-10T09:25:03;7.87;;;5.07;;
4692;SDS011;11710;48.024;16.296;2023-05-10T09:27:31;6.67;;;5.60;;
4692;SDS011;11710;48.024;16.296;2023-05-10T09:30:00;6.03;;;4.80;;
4692;SDS011;11710;48.024;16.296;2023-05-10T09:32:37;8.83;;;5.17;;
4692;SDS011;11710;48.024;16.296;2023-05-10T09:35:06;6.60;;;4.93;;
4692;SDS011;11710;48.024;16.296;2023-05-10T09:37:34;5.27;;;4.80;;
4692;SDS011;11710;48.024;16.296;2023-05-10T09:40:04;6.53;;;4.87;;
4692;SDS011;11710;48.024;16.296;2023-05-10T09:42:33;5.20;;;4.70;;
4692;SDS011;11710;48.024;16.296;2023-05-10T09:45:02;5.20;;;4.70;;
4692;SDS011;11710;48.024;16.296;2023-05-10T09:47:31;8.13;;;4.20;;
4692;SDS011;11710;48.024;16.296;2023-05-10T09:49:59;3.90;;;3.50;;
4692;SDS011;11710;48.024;16.296;2023-05-10T09:52:29;5.00;;;4.50;;
4692;SDS011;11710;48.024;16.296;2023-05-10T09:55:11;4.80;;;4.00;;
4692;SDS011;11710;48.024;16.296;2023-05-10T09:57:39;3.77;;;3.47;;
4692;SDS011;11710;48.024;16.296;2023-05-10T10:00:09;3.33;;;3.03;;
4692;SDS011;11710;48.024;16.296;2023-05-10T10:02:43;3.63;;;3.33;;
4692;SDS011;11710;48.024;16.296;2023-05-10T10:05:12;4.00;;;3.40;;
4692;SDS011;11710;48.024;16.296;2023-05-10T10:07:40;3.60;;;2.87;;
4692;SDS011;11710;48.024;16.296;2023-05-10T10:10:08;3.40;;;3.10;;
4692;SDS011;11710;48.024;16.296;2023-05-10T10:12:38;5.03;;;3.30;;
4692;SDS011;11710;48.024;16.296;2023-05-10T10:15:09;3.70;;;3.17;;
4692;SDS011;11710;48.024;16.296;2023-05-10T10:17:36;7.00;;;3.20;;
4692;SDS011;11710;48.024;16.296;2023-05-10T10:20:06;3.17;;;2.97;;
4692;SDS011;11710;48.024;16.296;2023-05-10T10:22:34;3.43;;;3.13;;
4692;SDS011;11710;48.024;16.296;2023-05-10T10:25:03;4.63;;;3.43;;
4692;SDS011;11710;48.024;16.296;2023-05-10T10:27:35;6.70;;;3.43;;
4692;SDS011;11710;48.024;16.296;2023-05-10T10:30:13;4.13;;;3.37;;
4692;SDS011;11710;48.024;16.296;2023-05-10T10:33:09;3.30;;;3.00;;
4692;SDS011;11710;48.024;16.296;2023-05-10T10:35:51;3.80;;;3.50;;
4692;SDS011;11710;48.024;16.296;2023-05-10T10:38:19;4.20;;;3.00;;
4692;SDS011;11710;48.024;16.296;2023-05-10T10:40:47;6.50;;;3.40;;
4692;SDS011;11710;48.024;16.296;2023-05-10T10:43:28;5.70;;;3.10;;
4692;SDS011;11710;48.024;16.296;2023-05-10T10:46:15;5.20;;;3.40;;
4692;SDS011;11710;48.024;16.296;2023-05-10T10:48:47;3.60;;;3.00;;
4692;SDS011;11710;48.024;16.296;2023-05-10T10:51:16;4.00;;;3.57;;
4692;SDS011;11710;48.024;16.296;2023-05-10T10:53:44;3.83;;;3.43;;
4692;SDS011;11710;48.024;16.296;2023-05-10T10:56:14;8.60;;;3.20;;
4692;SDS011;11710;48.024;16.296;2023-05-10T10:58:49;4.00;;;3.70;;
4692;SDS011;11710;48.024;16.296;2023-05-10T11:01:20;6.80;;;3.90;;
4692;SDS011;11710;48.024;16.296;2023-05-10T11:06:46;4.30;;;3.77;;
4692;SDS011;11710;48.024;16.296;2023-05-10T11:09:13;5.30;;;3.60;;
4692;SDS011;11710;48.024;16.296;2023-05-10T11:11:51;3.93;;;3.60;;
4692;SDS011;11710;48.024;16.296;2023-05-10T11:14:20;3.80;;;3.50;;
4692;SDS011;11710;48.024;16.296;2023-05-10T11:16:49;4.13;;;3.73;;
4692;SDS011;11710;48.024;16.296;2023-05-10T11:19:17;4.10;;;3.70;;
4692;SDS011;11710;48.024;16.296;2023-05-10T11:21:45;4.37;;;3.97;;
4692;SDS011;11710;48.024;16.296;2023-05-10T11:24:14;3.80;;;3.50;;
4692;SDS011;11710;48.024;16.296;2023-05-10T11:26:42;4.30;;;3.57;;
4692;SDS011;11710;48.024;16.296;2023-05-10T11:29:10;4.17;;;3.87;;
4692;SDS011;11710;48.024;16.296;2023-05-10T11:31:42;4.40;;;4.00;;
4692;SDS011;11710;48.024;16.296;2023-05-10T11:34:15;4.60;;;4.07;;
4692;SDS011;11710;48.024;16.296;2023-05-10T11:36:51;4.77;;;3.63;;
4692;SDS011;11710;48.024;16.296;2023-05-10T11:39:19;3.70;;;3.40;;
4692;SDS011;11710;48.024;16.296;2023-05-10T11:41:48;5.90;;;3.60;;
4692;SDS011;11710;48.024;16.296;2023-05-10T11:44:16;17.93;;;5.20;;
4692;SDS011;11710;48.024;16.296;2023-05-10T11:46:43;4.20;;;3.80;;
4692;SDS011;11710;48.024;16.296;2023-05-10T11:49:10;11.77;;;5.47;;
4692;SDS011;11710;48.024;16.296;2023-05-10T11:51:39;39.03;;;7.30;;
4692;SDS011;11710;48.024;16.296;2023-05-10T11:54:09;5.93;;;3.87;;
4692;SDS011;11710;48.024;16.296;2023-05-10T11:56:37;12.33;;;4.30;;
4692;SDS011;11710;48.024;16.296;2023-05-10T11:59:05;8.30;;;3.93;;
4692;SDS011;11710;48.024;16.296;2023-05-10T12:01:33;7.90;;;4.07;;
4692;SDS011;11710;48.024;16.296;2023-05-10T12:04:01;4.33;;;3.73;;
4692;SDS011;11710;48.024;16.296;2023-05-10T12:06:30;4.87;;;2.90;;
4692;SDS011;11710;48.024;16.296;2023-05-10T12:09:06;7.30;;;3.30;;
4692;SDS011;11710;48.024;16.296;2023-05-10T12:11:36;5.00;;;3.23;;
4692;SDS011;11710;48.024;16.296;2023-05-10T12:14:05;4.60;;;3.30;;
4692;SDS011;11710;48.024;16.296;2023-05-10T12:16:32;4.40;;;3.07;;
4692;SDS011;11710;48.024;16.296;2023-05-10T12:19:00;10.90;;;3.40;;
4692;SDS011;11710;48.024;16.296;2023-05-10T12:21:27;5.53;;;3.80;;
4692;SDS011;11710;48.024;16.296;2023-05-10T12:23:59;4.20;;;3.90;;
4692;SDS011;11710;48.024;16.296;2023-05-10T12:26:28;3.73;;;3.40;;
4692;SDS011;11710;48.024;16.296;2023-05-10T12:29:10;3.67;;;3.37;;
4692;SDS011;11710;48.024;16.296;2023-05-10T12:31:53;3.87;;;3.57;;
4692;SDS011;11710;48.024;16.296;2023-05-10T12:34:25;5.83;;;2.90;;
4692;SDS011;11710;48.024;16.296;2023-05-10T12:36:55;3.70;;;2.93;;
4692;SDS011;11710;48.024;16.296;2023-05-10T12:39:22;4.03;;;3.60;;
4692;SDS011;11710;48.024;16.296;2023-05-10T12:41:50;3.40;;;3.00;;
4692;SDS011;11710;48.024;16.296;2023-05-10T12:44:17;3.83;;;3.53;;
4692;SDS011;11710;48.024;16.296;2023-05-10T12:46:45;2.80;;;2.60;;
4692;SDS011;11710;48.024;16.296;2023-05-10T12:49:12;3.60;;;3.30;;
4692;SDS011;11710;48.024;16.296;2023-05-10T12:51:40;2.80;;;2.60;;
4692;SDS011;11710;48.024;16.296;2023-05-10T12:54:08;3.27;;;2.97;;
4692;SDS011;11710;48.024;16.296;2023-05-10T12:56:37;3.10;;;2.80;;
4692;SDS011;11710;48.024;16.296;2023-05-10T12:59:06;3.97;;;2.80;;
4692;SDS011;11710;48.024;16.296;2023-05-10T13:01:33;2.87;;;2.60;;
4692;SDS011;11710;48.024;16.296;2023-05-10T13:04:00;3.53;;;2.60;;
4692;SDS011;11710;48.024;16.296;2023-05-10T13:06:27;3.20;;;2.90;;
4692;SDS011;11710;48.024;16.296;2023-05-10T13:08:54;4.87;;;3.20;;
4692;SDS011;11710;48.024;16.296;2023-05-10T13:11:24;6.87;;;3.10;;
4692;SDS011;11710;48.024;16.296;2023-05-10T13:13:51;3.47;;;3.17;;
4692;SDS011;11710;48.024;16.296;2023-05-10T13:16:18;3.40;;;3.10;;
4692;SDS011;11710;48.024;16.296;2023-05-10T13:18:45;7.33;;;3.43;;
4692;SDS011;11710;48.024;16.296;2023-05-10T13:21:12;3.37;;;3.00;;
4692;SDS011;11710;48.024;16.296;2023-05-10T13:23:40;4.00;;;3.17;;
4692;SDS011;11710;48.024;16.296;2023-05-10T13:26:07;3.50;;;3.20;;
4692;SDS011;11710;48.024;16.296;2023-05-10T13:28:35;4.77;;;2.90;;
4692;SDS011;11710;48.024;16.296;2023-05-10T13:31:03;4.10;;;3.20;;
4692;SDS011;11710;48.024;16.296;2023-05-10T13:33:31;3.33;;;3.10;;
4692;SDS011;11710;48.024;16.296;2023-05-10T13:35:58;3.63;;;3.33;;
4692;SDS011;11710;48.024;16.296;2023-05-10T13:38:25;3.90;;;3.60;;
4692;SDS011;11710;48.024;16.296;2023-05-10T13:40:52;3.70;;;3.20;;
4692;SDS011;11710;48.024;16.296;2023-05-10T13:43:19;4.27;;;3.67;;
4692;SDS011;11710;48.024;16.296;2023-05-10T13:45:48;5.90;;;3.50;;
4692;SDS011;11710;48.024;16.296;2023-05-10T13:48:15;4.37;;;3.77;;
4692;SDS011;11710;48.024;16.296;2023-05-10T13:50:42;4.40;;;4.00;;
4692;SDS011;11710;48.024;16.296;2023-05-10T13:53:10;4.10;;;3.67;;
4692;SDS011;11710;48.024;16.296;2023-05-10T13:55:37;4.93;;;3.77;;
4692;SDS011;11710;48.024;16.296;2023-05-10T13:58:04;4.40;;;3.40;;
4692;SDS011;11710;48.024;16.296;2023-05-10T14:00:32;5.37;;;3.77;;
4692;SDS011;11710;48.024;16.296;2023-05-10T14:03:00;3.47;;;3.17;;
4692;SDS011;11710;48.024;16.296;2023-05-10T14:05:27;10.63;;;3.43;;
4692;SDS011;11710;48.024;16.296;2023-05-10T14:07:55;4.30;;;3.67;;
4692;SDS011;11710;48.024;16.296;2023-05-10T14:10:22;4.00;;;3.60;;
4692;SDS011;11710;48.024;16.296;2023-05-10T14:12:49;3.80;;;3.50;;
4692;SDS011;11710;48.024;16.296;2023-05-10T14:15:16;3.77;;;3.30;;
4692;SDS011;11710;48.024;16.296;2023-05-10T14:17:44;3.80;;;3.50;;
4692;SDS011;11710;48.024;16.296;2023-05-10T14:20:13;4.93;;;3.50;;
4692;SDS011;11710;48.024;16.296;2023-05-10T14:22:40;3.87;;;3.47;;
4692;SDS011;11710;48.024;16.296;2023-05-10T14:25:07;3.63;;;3.33;;
4692;SDS011;11710;48.024;16.296;2023-05-10T14:27:35;4.43;;;4.03;;
4692;SDS011;11710;48.024;16.296;2023-05-10T14:30:02;4.13;;;3.40;;
4692;SDS011;11710;48.024;16.296;2023-05-10T14:32:30;7.37;;;3.83;;
4692;SDS011;11710;48.024;16.296;2023-05-10T14:34:59;4.10;;;3.67;;
4692;SDS011;11710;48.024;16.296;2023-05-10T14:37:27;5.60;;;4.00;;
4692;SDS011;11710;48.024;16.296;2023-05-10T14:39:54;4.00;;;3.70;;
4692;SDS011;11710;48.024;16.296;2023-05-10T14:42:21;4.27;;;3.87;;
4692;SDS011;11710;48.024;16.296;2023-05-10T14:44:49;11.53;;;4.03;;
4692;SDS011;11710;48.024;16.296;2023-05-10T14:47:16;8.87;;;4.20;;
4692;SDS011;11710;48.024;16.296;2023-05-10T14:49:45;4.20;;;3.80;;
4692;SDS011;11710;48.024;16.296;2023-05-10T14:52:13;6.70;;;3.60;;
4692;SDS011;11710;48.024;16.296;2023-05-10T14:54:43;4.13;;;3.83;;
4692;SDS011;11710;48.024;16.296;2023-05-10T14:57:11;4.57;;;3.83;;
4692;SDS011;11710;48.024;16.296;2023-05-10T14:59:40;4.20;;;3.80;;
4692;SDS011;11710;48.024;16.296;2023-05-10T15:02:10;4.03;;;3.67;;
4692;SDS011;11710;48.024;16.296;2023-05-10T15:04:38;4.80;;;3.70;;
4692;SDS011;11710;48.024;16.296;2023-05-10T15:07:06;4.30;;;3.90;;
4692;SDS011;11710;48.024;16.296;2023-05-10T15:09:34;4.17;;;3.77;;
4692;SDS011;11710;48.024;16.296;2023-05-10T15:12:03;4.20;;;3.80;;
4692;SDS011;11710;48.024;16.296;2023-05-10T15:14:31;4.13;;;3.53;;
4692;SDS011;11710;48.024;16.296;2023-05-10T15:17:01;5.80;;;4.00;;
4692;SDS011;11710;48.024;16.296;2023-05-10T15:19:28;4.27;;;3.87;;
4692;SDS011;11710;48.024;16.296;2023-05-10T15:21:56;4.10;;;3.70;;
4692;SDS011;11710;48.024;16.296;2023-05-10T15:24:24;5.33;;;3.43;;
4692;SDS011;11710;48.024;16.296;2023-05-10T15:26:54;6.63;;;3.33;;
4692;SDS011;11710;48.024;16.296;2023-05-10T15:29:24;3.60;;;3.30;;
4692;SDS011;11710;48.024;16.296;2023-05-10T15:31:51;5.33;;;3.40;;
4692;SDS011;11710;48.024;16.296;2023-05-10T15:34:19;3.97;;;3.57;;
4692;SDS011;11710;48.024;16.296;2023-05-10T15:36:46;3.90;;;3.40;;
4692;SDS011;11710;48.024;16.296;2023-05-10T15:39:13;4.53;;;3.00;;
4692;SDS011;11710;48.024;16.296;2023-05-10T15:41:41;3.73;;;3.00;;
4692;SDS011;11710;48.024;16.296;2023-05-10T15:44:08;4.23;;;3.03;;
4692;SDS011;11710;48.024;16.296;2023-05-10T15:46:38;7.30;;;3.30;;
4692;SDS011;11710;48.024;16.296;2023-05-10T15:49:05;6.40;;;2.97;;
4692;SDS011;11710;48.024;16.296;2023-05-10T15:51:33;4.43;;;2.93;;
4692;SDS011;11710;48.024;16.296;2023-05-10T15:54:01;6.40;;;3.00;;
4692;SDS011;11710;48.024;16.296;2023-05-10T15:56:31;2.70;;;2.50;;
4692;SDS011;11710;48.024;16.296;2023-05-10T15:58:59;3.60;;;3.13;;
4692;SDS011;11710;48.024;16.296;2023-05-10T16:01:28;3.10;;;2.90;;
4692;SDS011;11710;48.024;16.296;2023-05-10T16:04:00;3.30;;;3.00;;
4692;SDS011;11710;48.024;16.296;2023-05-10T16:06:32;3.63;;;3.30;;
4692;SDS011;11710;48.024;16.296;2023-05-10T16:09:00;2.70;;;2.50;;
4692;SDS011;11710;48.024;16.296;2023-05-10T16:11:28;3.37;;;3.00;;
4692;SDS011;11710;48.024;16.296;2023-05-10T16:13:56;3.37;;;3.10;;
4692;SDS011;11710;48.024;16.296;2023-05-10T16:16:23;6.13;;;2.80;;
4692;SDS011;11710;48.024;16.296;2023-05-10T16:18:50;6.20;;;3.00;;
4692;SDS011;11710;48.024;16.296;2023-05-10T16:21:19;3.67;;;3.27;;
4692;SDS011;11710;48.024;16.296;2023-05-10T16:23:46;3.23;;;3.03;;
4692;SDS011;11710;48.024;16.296;2023-05-10T16:26:14;12.03;;;3.30;;
4692;SDS011;11710;48.024;16.296;2023-05-10T16:28:43;4.40;;;3.67;;
4692;SDS011;11710;48.024;16.296;2023-05-10T16:31:11;6.63;;;3.20;;
4692;SDS011;11710;48.024;16.296;2023-05-10T16:33:38;3.07;;;2.77;;
4692;SDS011;11710;48.024;16.296;2023-05-10T16:36:05;3.60;;;3.00;;
4692;SDS011;11710;48.024;16.296;2023-05-10T16:38:34;3.90;;;3.00;;
4692;SDS011;11710;48.024;16.296;2023-05-10T16:41:01;3.87;;;3.50;;
4692;SDS011;11710;48.024;16.296;2023-05-10T16:43:29;3.27;;;3.00;;
4692;SDS011;11710;48.024;16.296;2023-05-10T16:46:00;6.27;;;2.87;;
4692;SDS011;11710;48.024;16.296;2023-05-10T16:48:47;6.17;;;3.10;;
4692;SDS011;11710;48.024;16.296;2023-05-10T16:51:14;3.17;;;2.73;;
4692;SDS011;11710;48.024;16.296;2023-05-10T16:53:43;4.00;;;3.37;;
4692;SDS011;11710;48.024;16.296;2023-05-10T16:56:10;3.43;;;3.10;;
4692;SDS011;11710;48.024;16.296;2023-05-10T16:58:38;3.60;;;3.17;;
4692;SDS011;11710;48.024;16.296;2023-05-10T17:01:05;4.60;;;3.30;;
4692;SDS011;11710;48.024;16.296;2023-05-10T17:03:32;3.90;;;3.50;;
4692;SDS011;11710;48.024;16.296;2023-05-10T17:05:59;4.60;;;3.60;;
4692;SDS011;11710;48.024;16.296;2023-05-10T17:08:27;3.33;;;3.13;;
4692;SDS011;11710;48.024;16.296;2023-05-10T17:10:55;4.10;;;3.50;;
4692;SDS011;11710;48.024;16.296;2023-05-10T17:13:26;7.00;;;3.70;;
4692;SDS011;11710;48.024;16.296;2023-05-10T17:15:54;3.70;;;3.40;;
4692;SDS011;11710;48.024;16.296;2023-05-10T17:18:21;6.33;;;3.50;;
4692;SDS011;11710;48.024;16.296;2023-05-10T17:20:50;3.63;;;3.33;;
4692;SDS011;11710;48.024;16.296;2023-05-10T17:23:17;3.60;;;3.30;;
4692;SDS011;11710;48.024;16.296;2023-05-10T17:25:45;7.23;;;3.90;;
4692;SDS011;11710;48.024;16.296;2023-05-10T17:28:13;3.67;;;3.33;;
4692;SDS011;11710;48.024;16.296;2023-05-10T17:30:40;6.57;;;3.30;;
4692;SDS011;11710;48.024;16.296;2023-05-10T17:33:08;3.83;;;3.50;;
4692;SDS011;11710;48.024;16.296;2023-05-10T17:35:35;3.93;;;3.53;;
4692;SDS011;11710;48.024;16.296;2023-05-10T17:38:03;3.53;;;3.23;;
4692;SDS011;11710;48.024;16.296;2023-05-10T17:40:30;4.13;;;3.60;;
4692;SDS011;11710;48.024;16.296;2023-05-10T17:42:57;4.70;;;3.00;;
4692;SDS011;11710;48.024;16.296;2023-05-10T17:45:26;3.90;;;3.60;;
4692;SDS011;11710;48.024;16.296;2023-05-10T17:47:53;3.10;;;2.80;;
4692;SDS011;11710;48.024;16.296;2023-05-10T17:50:20;9.60;;;3.27;;
4692;SDS011;11710;48.024;16.296;2023-05-10T17:52:47;6.23;;;3.90;;
4692;SDS011;11710;48.024;16.296;2023-05-10T17:55:14;3.70;;;3.40;;
4692;SDS011;11710;48.024;16.296;2023-05-10T17:57:42;4.03;;;3.50;;
4692;SDS011;11710;48.024;16.296;2023-05-10T18:00:09;3.57;;;3.27;;
4692;SDS011;11710;48.024;16.296;2023-05-10T18:02:39;3.70;;;3.40;;
4692;SDS011;11710;48.024;16.296;2023-05-10T18:05:07;6.33;;;3.23;;
4692;SDS011;11710;48.024;16.296;2023-05-10T18:07:35;4.17;;;3.87;;
4692;SDS011;11710;48.024;16.296;2023-05-10T18:10:03;4.87;;;3.90;;
4692;SDS011;11710;48.024;16.296;2023-05-10T18:12:32;5.37;;;3.70;;
4692;SDS011;11710;48.024;16.296;2023-05-10T18:15:02;4.77;;;3.53;;
4692;SDS011;11710;48.024;16.296;2023-05-10T18:17:30;4.03;;;3.40;;
4692;SDS011;11710;48.024;16.296;2023-05-10T18:20:00;4.40;;;3.43;;
4692;SDS011;11710;48.024;16.296;2023-05-10T18:22:28;3.80;;;3.50;;
4692;SDS011;11710;48.024;16.296;2023-05-10T18:24:55;3.73;;;3.43;;
4692;SDS011;11710;48.024;16.296;2023-05-10T18:27:22;4.27;;;3.60;;
4692;SDS011;11710;48.024;16.296;2023-05-10T18:29:50;9.57;;;3.80;;
4692;SDS011;11710;48.024;16.296;2023-05-10T18:32:17;3.83;;;2.93;;
4692;SDS011;11710;48.024;16.296;2023-05-10T18:34:44;4.13;;;3.73;;
4692;SDS011;11710;48.024;16.296;2023-05-10T18:37:13;4.43;;;3.43;;
4692;SDS011;11710;48.024;16.296;2023-05-10T18:39:40;3.90;;;3.60;;
4692;SDS011;11710;48.024;16.296;2023-05-10T18:42:08;4.37;;;3.80;;
4692;SDS011;11710;48.024;16.296;2023-05-10T18:44:35;3.40;;;3.10;;
4692;SDS011;11710;48.024;16.296;2023-05-10T18:47:02;5.07;;;3.50;;
4692;SDS011;11710;48.024;16.296;2023-05-10T18:49:29;4.23;;;3.40;;
4692;SDS011;11710;48.024;16.296;2023-05-10T18:51:56;4.97;;;3.63;;
4692;SDS011;11710;48.024;16.296;2023-05-10T18:54:25;5.47;;;3.70;;
4692;SDS011;11710;48.024;16.296;2023-05-10T18:56:53;4.33;;;3.20;;
4692;SDS011;11710;48.024;16.296;2023-05-10T18:59:21;4.40;;;3.80;;
4692;SDS011;11710;48.024;16.296;2023-05-10T19:01:49;4.30;;;3.53;;
4692;SDS011;11710;48.024;16.296;2023-05-10T19:04:16;4.93;;;3.63;;
4692;SDS011;11710;48.024;16.296;2023-05-10T19:06:43;6.73;;;4.10;;
4692;SDS011;11710;48.024;16.296;2023-05-10T19:09:10;4.50;;;3.53;;
4692;SDS011;11710;48.024;16.296;2023-05-10T19:11:39;4.00;;;3.63;;
4692;SDS011;11710;48.024;16.296;2023-05-10T19:14:07;5.30;;;3.40;;
4692;SDS011;11710;48.024;16.296;2023-05-10T19:16:34;8.63;;;3.63;;